createdAt,value
2017-04-11T00:00:10.551Z,99.99
2017-04-11T00:01:20.082Z,99.99
2017-04-11T00:02:28.666Z,99.99
2017-04-11T00:03:37.260Z,99.99
2017-04-11T00:04:46.480Z,99.99
2017-04-11T00:05:56.058Z,99.99
2017-04-11T00:07:04.649Z,99.99
2017-04-11T00:08:13.567Z,99.99
2017-04-11T00:09:22.783Z,99.99
2017-04-11T00:10:32.647Z,99.99
2017-04-11T00:11:41.865Z,99.99
2017-04-11T00:12:51.088Z,99.99
2017-04-11T00:13:59.985Z,99.99
2017-04-11T00:15:09.524Z,99.99
2017-04-11T00:16:18.433Z,99.99
2017-04-11T00:17:27.656Z,99.99
2017-04-11T00:18:36.561Z,99.99
2017-04-11T00:19:45.466Z,99.99
2017-04-11T00:20:54.360Z,99.99
2017-04-11T00:22:03.263Z,99.99
2017-04-11T00:23:12.161Z,99.99
2017-04-11T00:24:21.391Z,99.99
2017-04-11T00:25:31.246Z,99.99
2017-04-11T00:26:40.464Z,99.99
2017-04-11T00:27:50.005Z,99.99
2017-04-11T00:28:59.543Z,99.99
2017-04-11T00:30:08.769Z,99.99
2017-04-11T00:31:17.998Z,99.99
2017-04-11T00:32:26.579Z,99.99
2017-04-11T00:33:35.794Z,99.99
2017-04-11T00:34:45.014Z,99.99
2017-04-11T00:35:53.914Z,99.99
2017-04-11T00:37:02.811Z,99.99
2017-04-11T00:38:11.719Z,99.99
2017-04-11T00:39:21.573Z,99.99
2017-04-11T00:40:30.155Z,99.99
2017-04-11T00:41:39.065Z,99.99
2017-04-11T00:42:48.608Z,99.99
2017-04-11T00:43:57.515Z,99.99
2017-04-11T00:45:07.050Z,99.99
2017-04-11T00:46:16.272Z,99.99
2017-04-11T00:47:24.859Z,99.99
2017-04-11T00:48:34.079Z,99.99
2017-04-11T00:49:43.614Z,99.99
2017-04-11T00:50:53.156Z,99.99
2017-04-11T00:52:02.058Z,99.99
2017-04-11T00:53:10.949Z,99.99
2017-04-11T00:54:20.167Z,99.99
2017-04-11T00:55:29.069Z,99.99
2017-04-11T00:56:37.972Z,99.99
2017-04-11T00:57:47.182Z,99.99
2017-04-11T00:58:56.098Z,99.99
2017-04-11T01:00:05.003Z,99.99
2017-04-11T01:01:13.902Z,99.99
2017-04-11T01:02:22.809Z,99.99
2017-04-11T01:03:31.398Z,99.99
2017-04-11T01:04:40.304Z,99.99
2017-04-11T01:05:49.522Z,99.99
2017-04-11T01:06:58.739Z,99.99
2017-04-11T01:08:07.323Z,99.99
2017-04-11T01:09:16.857Z,99.99
2017-04-11T01:10:25.443Z,99.99
2017-04-11T01:11:34.662Z,99.99
2017-04-11T01:12:44.205Z,99.99
2017-04-11T01:13:53.435Z,99.99
2017-04-11T01:15:02.339Z,99.99
2017-04-11T01:16:10.960Z,99.99
2017-04-11T01:17:19.547Z,99.99
2017-04-11T01:18:28.135Z,99.99
2017-04-11T01:19:37.038Z,99.99
2017-04-11T01:20:45.941Z,99.99
2017-04-11T01:21:54.850Z,99.99
2017-04-11T01:23:03.756Z,99.99
2017-04-11T01:24:12.985Z,99.99
2017-04-11T01:25:21.900Z,99.99
2017-04-11T01:26:31.763Z,99.99
2017-04-11T01:27:40.991Z,99.99
2017-04-11T01:28:49.897Z,99.99
2017-04-11T01:29:59.122Z,99.99
2017-04-11T01:31:08.665Z,99.99
2017-04-11T01:32:18.190Z,99.99
2017-04-11T01:33:27.414Z,99.99
2017-04-11T01:34:36.636Z,99.99
2017-04-11T01:35:45.545Z,99.99
2017-04-11T01:36:54.447Z,99.99
2017-04-11T01:38:03.667Z,99.99
2017-04-11T01:39:12.249Z,99.99
2017-04-11T01:40:21.477Z,99.99
2017-04-11T01:41:30.697Z,99.99
2017-04-11T01:42:39.276Z,99.99
2017-04-11T01:43:49.065Z,99.99
2017-04-11T01:44:57.643Z,99.99
2017-04-11T01:46:06.826Z,99.99
2017-04-11T01:47:15.737Z,99.99
2017-04-11T01:48:24.320Z,99.99
2017-04-11T01:49:33.541Z,99.99
2017-04-11T01:50:42.767Z,99.99
2017-04-11T01:51:51.673Z,99.99
2017-04-11T01:53:00.890Z,99.99
2017-04-11T01:54:09.801Z,99.99
2017-04-11T01:55:18.700Z,99.99
2017-04-11T01:56:27.604Z,99.99
2017-04-11T01:57:37.201Z,99.99
2017-04-11T01:58:46.225Z,99.99
2017-04-11T01:59:55.136Z,99.99
2017-04-11T02:01:03.727Z,99.99
2017-04-11T02:02:12.631Z,99.99
2017-04-11T02:03:22.178Z,99.99
2017-04-11T02:04:31.397Z,99.99
2017-04-11T02:05:40.299Z,99.99
2017-04-11T02:06:49.199Z,99.99
2017-04-11T02:07:58.422Z,99.99
2017-04-11T02:09:07.325Z,99.99
2017-04-11T02:10:16.605Z,99.99
2017-04-11T02:11:26.141Z,99.99
2017-04-11T02:12:35.039Z,99.99
2017-04-11T02:13:43.940Z,99.99
2017-04-11T02:14:53.485Z,99.99
2017-04-11T02:16:03.030Z,99.99
2017-04-11T02:17:11.935Z,99.99
2017-04-11T02:18:21.476Z,99.99
2017-04-11T02:19:30.692Z,99.99
2017-04-11T02:20:39.584Z,99.99
2017-04-11T02:21:48.167Z,99.99
2017-04-11T02:22:57.390Z,99.99
2017-04-11T02:24:05.976Z,99.99
2017-04-11T02:25:14.884Z,99.99
2017-04-11T02:26:23.788Z,99.99
2017-04-11T02:27:32.688Z,99.99
2017-04-11T02:28:41.591Z,99.99
2017-04-11T02:29:51.118Z,99.99
2017-04-11T02:30:59.702Z,99.99
2017-04-11T02:32:08.292Z,99.99
2017-04-11T02:33:17.206Z,99.99
2017-04-11T02:34:26.426Z,99.99
2017-04-11T02:35:35.966Z,99.99
2017-04-11T02:36:45.182Z,99.99
2017-04-11T02:37:55.043Z,99.99
2017-04-11T02:39:04.588Z,99.99
2017-04-11T02:40:13.808Z,99.99
2017-04-11T02:41:23.020Z,99.99
2017-04-11T02:42:32.245Z,99.99
2017-04-11T02:43:41.462Z,99.99
2017-04-11T02:44:50.680Z,99.99
2017-04-11T02:46:00.217Z,99.99
2017-04-11T02:47:09.756Z,99.99
2017-04-11T02:48:18.974Z,99.99
2017-04-11T02:49:27.880Z,99.99
2017-04-11T02:50:37.413Z,99.99
2017-04-11T02:51:45.993Z,99.99
2017-04-11T02:52:55.211Z,99.99
2017-04-11T02:54:05.065Z,99.99
2017-04-11T02:55:13.701Z,99.99
2017-04-11T02:56:22.598Z,99.99
2017-04-11T02:57:31.808Z,99.99
2017-04-11T02:58:40.703Z,99.99
2017-04-11T02:59:49.921Z,99.99
2017-04-11T03:00:59.150Z,99.99
2017-04-11T03:02:08.374Z,99.99
2017-04-11T03:03:17.594Z,99.99
2017-04-11T03:04:27.445Z,99.99
2017-04-11T03:05:36.971Z,99.99
2017-04-11T03:06:45.884Z,99.99
2017-04-11T03:07:55.100Z,99.99
2017-04-11T03:09:04.320Z,99.99
2017-04-11T03:10:13.220Z,99.99
2017-04-11T03:11:22.437Z,99.99
2017-04-11T03:12:31.340Z,99.99
2017-04-11T03:13:41.198Z,99.99
2017-04-11T03:14:50.107Z,99.99
2017-04-11T03:15:59.647Z,99.99
2017-04-11T03:17:09.179Z,99.99
2017-04-11T03:18:18.077Z,99.99
2017-04-11T03:19:27.611Z,99.99
2017-04-11T03:20:36.524Z,99.99
2017-04-11T03:21:45.740Z,99.99
2017-04-11T03:22:54.361Z,99.99
2017-04-11T03:24:03.591Z,99.99
2017-04-11T03:25:13.453Z,99.99
2017-04-11T03:26:22.707Z,99.99
2017-04-11T03:27:31.937Z,99.99
2017-04-11T03:28:41.475Z,99.99
2017-04-11T03:29:51.014Z,99.99
2017-04-11T03:31:00.226Z,99.99
2017-04-11T03:32:09.448Z,99.99
2017-04-11T03:33:18.673Z,99.99
2017-04-11T03:34:27.260Z,99.99
2017-04-11T03:35:36.795Z,99.99
2017-04-11T03:36:45.380Z,99.99
2017-04-11T03:37:54.917Z,99.99
2017-04-11T03:39:04.140Z,99.99
2017-04-11T03:40:13.364Z,99.99
2017-04-11T03:41:22.259Z,99.99
2017-04-11T03:42:31.807Z,99.99
2017-04-11T03:43:41.030Z,99.99
2017-04-11T03:44:49.939Z,99.99
2017-04-11T03:45:58.528Z,99.99
2017-04-11T03:47:07.431Z,99.99
2017-04-11T03:48:16.962Z,99.99
2017-04-11T03:49:26.182Z,99.99
2017-04-11T03:50:35.152Z,99.99
2017-04-11T03:51:43.742Z,99.99
2017-04-11T03:52:52.643Z,99.99
2017-04-11T03:54:01.225Z,99.99
2017-04-11T03:55:09.803Z,99.99
2017-04-11T03:56:18.696Z,99.99
2017-04-11T03:57:28.160Z,99.99
2017-04-11T03:58:37.379Z,99.99
2017-04-11T03:59:46.283Z,99.99
2017-04-11T04:00:55.532Z,99.99
2017-04-11T04:02:04.432Z,99.99
2017-04-11T04:03:13.340Z,99.99
2017-04-11T04:04:22.882Z,99.99
2017-04-11T04:05:32.108Z,99.99
2017-04-11T04:06:41.631Z,99.99
2017-04-11T04:07:50.217Z,99.99
2017-04-11T04:08:59.456Z,99.99
2017-04-11T04:10:08.998Z,99.99
2017-04-11T04:11:18.209Z,99.99
2017-04-11T04:12:26.792Z,99.99
2017-04-11T04:13:36.008Z,99.99
2017-04-11T04:14:45.549Z,99.99
2017-04-11T04:15:54.769Z,99.99
2017-04-11T04:17:03.722Z,99.99
2017-04-11T04:18:12.636Z,99.99
2017-04-11T04:19:22.178Z,99.99
2017-04-11T04:20:31.085Z,99.99
2017-04-11T04:21:39.668Z,99.99
2017-04-11T04:22:49.196Z,99.99
2017-04-11T04:23:58.422Z,99.99
2017-04-11T04:25:07.011Z,99.99
2017-04-11T04:26:16.239Z,99.99
2017-04-11T04:27:25.453Z,99.99
2017-04-11T04:28:34.354Z,99.99
2017-04-11T04:29:44.363Z,99.99
2017-04-11T04:30:53.257Z,99.99
2017-04-11T04:32:02.165Z,99.99
2017-04-11T04:33:11.381Z,99.99
2017-04-11T04:34:20.613Z,99.99
2017-04-11T04:35:30.473Z,99.99
2017-04-11T04:36:39.376Z,99.99
2017-04-11T04:37:47.949Z,99.99
2017-04-11T04:38:56.848Z,99.99
2017-04-11T04:40:06.383Z,99.99
2017-04-11T04:41:15.604Z,99.99
2017-04-11T04:42:24.818Z,99.99
2017-04-11T04:43:34.363Z,99.99
2017-04-11T04:44:43.263Z,99.99
2017-04-11T04:45:52.159Z,99.99
2017-04-11T04:47:01.055Z,99.99
2017-04-11T04:48:09.650Z,99.99
2017-04-11T04:49:18.799Z,99.99
2017-04-11T04:50:27.693Z,99.99
2017-04-11T04:51:36.276Z,99.99
2017-04-11T04:52:45.497Z,99.99
2017-04-11T04:53:54.402Z,99.99
2017-04-11T04:55:03.624Z,99.99
2017-04-11T04:56:12.849Z,99.99
2017-04-11T04:57:22.381Z,99.99
2017-04-11T04:58:31.281Z,99.99
2017-04-11T04:59:40.182Z,99.99
2017-04-11T05:00:49.396Z,99.99
2017-04-11T05:01:58.624Z,99.99
2017-04-11T05:03:07.524Z,99.99
2017-04-11T05:04:17.212Z,99.99
2017-04-11T05:05:26.428Z,99.99
2017-04-11T05:06:35.320Z,99.99
2017-04-11T05:07:43.901Z,99.99
2017-04-11T05:08:53.126Z,99.99
2017-04-11T05:10:02.665Z,99.99
2017-04-11T05:11:11.893Z,99.99
2017-04-11T05:12:20.794Z,99.99
2017-04-11T05:13:29.705Z,99.99
2017-04-11T05:14:38.612Z,99.99
2017-04-11T05:15:47.839Z,99.99
2017-04-11T05:16:57.382Z,99.99
2017-04-11T05:18:06.598Z,99.99
2017-04-11T05:19:15.812Z,99.99
2017-04-11T05:20:25.344Z,99.99
2017-04-11T05:21:34.813Z,99.99
2017-04-11T05:22:44.039Z,99.99
2017-04-11T05:23:53.258Z,99.99
2017-04-11T05:25:02.477Z,99.99
2017-04-11T05:26:11.378Z,99.99
2017-04-11T05:27:19.965Z,99.99
2017-04-11T05:28:29.508Z,99.99
2017-04-11T05:29:38.412Z,99.99
2017-04-11T05:30:47.879Z,99.99
2017-04-11T05:31:56.782Z,99.99
2017-04-11T05:33:05.681Z,99.99
2017-04-11T05:34:15.218Z,99.99
2017-04-11T05:35:24.121Z,99.99
2017-04-11T05:36:33.353Z,99.99
2017-04-11T05:37:42.884Z,99.99
2017-04-11T05:38:51.779Z,99.99
2017-04-11T05:40:00.370Z,99.99
2017-04-11T05:41:08.954Z,99.99
2017-04-11T05:42:17.535Z,99.99
2017-04-11T05:43:26.755Z,99.99
2017-04-11T05:44:36.014Z,99.99
2017-04-11T05:45:44.599Z,99.99
2017-04-11T05:46:53.497Z,99.99
2017-04-11T05:48:02.399Z,99.99
2017-04-11T05:49:11.983Z,99.99
2017-04-11T05:50:21.204Z,99.99
2017-04-11T05:51:30.743Z,99.99
2017-04-11T05:52:40.300Z,99.99
2017-04-11T05:53:49.213Z,99.99
2017-04-11T05:54:58.127Z,99.99
2017-04-11T05:56:07.066Z,99.99
2017-04-11T05:57:16.286Z,99.99
2017-04-11T05:58:25.208Z,99.99
2017-04-11T05:59:34.921Z,99.99
2017-04-11T06:00:43.826Z,99.99
2017-04-11T06:01:52.609Z,99.99
2017-04-11T06:03:01.835Z,99.99
2017-04-11T06:04:10.750Z,99.99
2017-04-11T06:05:19.662Z,99.99
2017-04-11T06:06:29.195Z,99.99
2017-04-11T06:07:38.404Z,99.99
2017-04-11T06:08:47.943Z,99.99
2017-04-11T06:09:57.161Z,99.99
2017-04-11T06:11:06.050Z,99.99
2017-04-11T06:12:14.955Z,99.99
2017-04-11T06:13:24.172Z,99.99
2017-04-11T06:14:33.069Z,99.99
2017-04-11T06:15:41.650Z,99.99
2017-04-11T06:16:50.553Z,99.99
2017-04-11T06:17:59.778Z,99.99
2017-04-11T06:19:09.007Z,99.99
2017-04-11T06:20:17.586Z,99.99
2017-04-11T06:21:27.132Z,99.99
2017-04-11T06:22:36.041Z,99.99
2017-04-11T06:23:45.893Z,99.99
2017-04-11T06:24:55.113Z,99.99
2017-04-11T06:26:04.333Z,99.99
2017-04-11T06:27:12.921Z,99.99
2017-04-11T06:28:21.809Z,99.99
2017-04-11T06:29:31.039Z,99.99
2017-04-11T06:30:40.257Z,99.99
2017-04-11T06:31:49.473Z,99.99
2017-04-11T06:32:58.687Z,99.99
2017-04-11T06:34:07.917Z,99.99
2017-04-11T06:35:17.462Z,99.99
2017-04-11T06:36:26.356Z,99.99
2017-04-11T06:37:35.256Z,99.99
2017-04-11T06:38:44.483Z,99.99
2017-04-11T06:39:53.383Z,99.99
2017-04-11T06:41:02.361Z,99.99
2017-04-11T06:42:10.980Z,99.99
2017-04-11T06:43:19.575Z,99.99
2017-04-11T06:44:28.865Z,99.99
2017-04-11T06:45:37.764Z,99.99
2017-04-11T06:46:47.301Z,99.99
2017-04-11T06:47:56.209Z,99.99
2017-04-11T06:49:05.437Z,99.99
2017-04-11T06:50:14.018Z,99.99
2017-04-11T06:51:22.609Z,99.99
2017-04-11T06:52:32.161Z,99.99
2017-04-11T06:53:41.391Z,99.99
2017-04-11T06:54:50.612Z,99.99
2017-04-11T06:56:00.213Z,99.99
2017-04-11T06:57:09.127Z,99.99
2017-04-11T06:58:18.028Z,99.99
2017-04-11T06:59:26.608Z,99.99
2017-04-11T07:00:35.509Z,99.99
2017-04-11T07:01:44.737Z,99.99
2017-04-11T07:02:53.649Z,99.99
2017-04-11T07:04:02.593Z,99.99
2017-04-11T07:05:12.257Z,99.99
2017-04-11T07:06:21.487Z,99.99
2017-04-11T07:07:31.083Z,99.99
2017-04-11T07:08:40.313Z,99.99
2017-04-11T07:09:49.857Z,99.99
2017-04-11T07:10:59.080Z,99.99
2017-04-11T07:12:07.671Z,99.99
2017-04-11T07:13:16.575Z,99.99
2017-04-11T07:14:25.167Z,99.99
2017-04-11T07:15:33.757Z,99.99
2017-04-11T07:16:43.295Z,99.99
2017-04-11T07:17:52.207Z,99.99
2017-04-11T07:19:01.122Z,99.99
2017-04-11T07:20:10.024Z,99.99
2017-04-11T07:21:18.612Z,99.99
2017-04-11T07:22:27.840Z,99.99
2017-04-11T07:23:37.164Z,99.99
2017-04-11T07:24:46.708Z,99.99
2017-04-11T07:25:55.969Z,99.99
2017-04-11T07:27:05.584Z,99.99
2017-04-11T07:28:14.504Z,99.99
2017-04-11T07:29:23.810Z,99.99
2017-04-11T07:30:33.062Z,99.99
2017-04-11T07:31:42.290Z,99.99
2017-04-11T07:32:51.509Z,99.99
2017-04-11T07:34:00.419Z,99.99
2017-04-11T07:35:10.068Z,99.99
2017-04-11T07:36:19.073Z,99.99
2017-04-11T07:37:28.330Z,99.99
2017-04-11T07:38:37.895Z,99.99
2017-04-11T07:39:47.424Z,99.99
2017-04-11T07:40:56.329Z,99.99
2017-04-11T07:42:05.232Z,99.99
2017-04-11T07:43:13.824Z,99.99
2017-04-11T07:44:22.728Z,99.99
2017-04-11T07:45:31.668Z,99.99
2017-04-11T07:46:40.648Z,99.99
2017-04-11T07:47:49.618Z,99.99
2017-04-11T07:48:59.159Z,99.99
2017-04-11T07:50:08.389Z,99.99
2017-04-11T07:51:18.247Z,99.99
2017-04-11T07:52:27.661Z,99.99
2017-04-11T07:53:36.566Z,99.99
2017-04-11T07:54:45.493Z,99.99
2017-04-11T07:55:54.747Z,99.99
2017-04-11T07:57:03.656Z,99.99
2017-04-11T07:58:12.571Z,99.99
2017-04-11T07:59:22.173Z,99.99
2017-04-11T08:00:31.791Z,99.99
2017-04-11T08:01:40.387Z,99.99
2017-04-11T08:02:49.630Z,99.99
2017-04-11T08:03:59.153Z,99.99
2017-04-11T08:05:07.743Z,99.99
2017-04-11T08:06:16.981Z,99.99
2017-04-11T08:07:25.678Z,99.99
2017-04-11T08:08:34.903Z,99.99
2017-04-11T08:09:43.491Z,99.99
2017-04-11T08:10:52.817Z,99.99
2017-04-11T08:12:02.040Z,99.99
2017-04-11T08:13:10.962Z,99.99
2017-04-11T08:14:20.541Z,99.99
2017-04-11T08:15:29.546Z,99.99
2017-04-11T08:16:38.778Z,99.99
2017-04-11T08:17:47.469Z,99.99
2017-04-11T08:18:56.063Z,99.99
2017-04-11T08:20:04.970Z,99.99
2017-04-11T08:21:15.778Z,99.99
2017-04-11T08:22:24.765Z,99.99
2017-04-11T08:23:34.311Z,99.99
2017-04-11T08:24:43.534Z,99.99
2017-04-11T08:25:52.754Z,99.99
2017-04-11T08:27:01.672Z,99.99
2017-04-11T08:28:10.581Z,99.99
2017-04-11T08:29:19.800Z,99.99
2017-04-11T08:30:28.720Z,99.99
2017-04-11T08:31:38.261Z,99.99
2017-04-11T08:32:47.488Z,99.99
2017-04-11T08:33:56.533Z,99.99
2017-04-11T08:35:06.394Z,99.99
2017-04-11T08:36:14.996Z,99.99
2017-04-11T08:37:24.243Z,99.99
2017-04-11T08:38:33.492Z,99.99
2017-04-11T08:39:43.092Z,99.99
2017-04-11T08:40:52.682Z,99.04
2017-04-11T08:42:02.685Z,98.27
2017-04-11T08:43:11.603Z,98.94
2017-04-11T08:44:20.828Z,99.99
2017-04-11T08:45:30.369Z,98.52
2017-04-11T08:46:39.598Z,98.47
2017-04-11T08:47:48.763Z,98.56
2017-04-11T08:48:57.989Z,98.71
2017-04-11T08:50:07.544Z,98.52
2017-04-11T08:51:17.285Z,96.51
2017-04-11T08:52:27.591Z,96.89
2017-04-11T08:53:38.050Z,96.89
2017-04-11T08:54:47.276Z,96.13
2017-04-11T08:55:56.189Z,96.32
2017-04-11T08:57:05.093Z,97.56
2017-04-11T08:58:14.266Z,97.56
2017-04-11T08:59:23.508Z,97.75
2017-04-11T09:00:33.053Z,97.08
2017-04-11T09:01:41.687Z,95.46
2017-04-11T09:02:51.246Z,96.7
2017-04-11T09:04:00.484Z,96.22
2017-04-11T09:05:09.402Z,97.08
2017-04-11T09:06:18.640Z,96.61
2017-04-11T09:07:27.881Z,96.98
2017-04-11T09:08:37.367Z,97.75
2017-04-11T09:09:46.078Z,97.75
2017-04-11T09:10:55.628Z,96.89
2017-04-11T09:12:04.847Z,97.85
2017-04-11T09:13:14.385Z,96.42
2017-04-11T09:14:23.122Z,96.27
2017-04-11T09:15:32.353Z,95.61
2017-04-11T09:16:41.899Z,95.41
2017-04-11T09:17:51.451Z,94.65
2017-04-11T09:19:00.689Z,92.93
2017-04-11T09:20:09.283Z,91.64
2017-04-11T09:21:18.189Z,91.93
2017-04-11T09:22:27.115Z,91.64
2017-04-11T09:23:36.914Z,92.21
2017-04-11T09:24:45.821Z,93.65
2017-04-11T09:25:55.056Z,91.93
2017-04-11T09:27:04.278Z,89.25
2017-04-11T09:28:13.822Z,87.43
2017-04-11T09:29:22.426Z,87.72
2017-04-11T09:30:31.333Z,87.43
2017-04-11T09:31:39.930Z,87.53
2017-04-11T09:32:49.159Z,88.96
2017-04-11T09:33:57.755Z,87.91
2017-04-11T09:35:06.671Z,89.06
2017-04-11T09:36:18.340Z,89.59
2017-04-11T09:37:27.267Z,89.11
2017-04-11T09:38:36.173Z,89.3
2017-04-11T09:39:45.084Z,89.2
2017-04-11T09:40:53.999Z,87.01
2017-04-11T09:42:03.225Z,86.82
2017-04-11T09:43:12.144Z,85.58
2017-04-11T09:44:22.020Z,85.29
2017-04-11T09:45:31.258Z,84.14
2017-04-11T09:46:40.171Z,84.62
2017-04-11T09:47:49.716Z,85.29
2017-04-11T09:48:58.304Z,85.14
2017-04-11T09:50:07.224Z,84.19
2017-04-11T09:51:16.236Z,82.84
2017-04-11T09:52:25.478Z,81.55
2017-04-11T09:53:35.037Z,80.69
2017-04-11T09:54:44.267Z,80.21
2017-04-11T09:55:53.177Z,79.25
2017-04-11T09:57:01.777Z,79.06
2017-04-11T09:58:11.002Z,79.83
2017-04-11T09:59:19.908Z,80.69
2017-04-11T10:00:28.817Z,80.88
2017-04-11T10:01:37.724Z,81.7
2017-04-11T10:02:46.628Z,81.84
2017-04-11T10:03:55.547Z,81.6
2017-04-11T10:05:04.145Z,82.28
2017-04-11T10:06:13.382Z,81.7
2017-04-11T10:07:22.298Z,81.89
2017-04-11T10:08:31.210Z,81.41
2017-04-11T10:09:39.806Z,80.74
2017-04-11T10:10:49.035Z,80.36
2017-04-11T10:11:57.950Z,79.02
2017-04-11T10:13:07.498Z,78.07
2017-04-11T10:14:16.426Z,77.69
2017-04-11T10:15:25.656Z,76.86
2017-04-11T10:16:34.575Z,76.77
2017-04-11T10:17:44.119Z,73.61
2017-04-11T10:18:53.037Z,72.08
2017-04-11T10:20:02.264Z,72.66
2017-04-11T10:21:11.801Z,71.45
2017-04-11T10:22:21.034Z,71.93
2017-04-11T10:23:29.942Z,71.64
2017-04-11T10:24:38.875Z,70.91
2017-04-11T10:25:48.127Z,69.95
2017-04-11T10:26:57.055Z,69.51
2017-04-11T10:28:05.977Z,69.13
2017-04-11T10:29:14.895Z,68.17
2017-04-11T10:30:24.439Z,67.79
2017-04-11T10:31:33.094Z,66.93
2017-04-11T10:32:42.325Z,67.05
2017-04-11T10:33:51.252Z,66.38
2017-04-11T10:35:00.488Z,65.71
2017-04-11T10:36:09.721Z,65.68
2017-04-11T10:37:18.952Z,65.39
2017-04-11T10:38:27.858Z,66
2017-04-11T10:39:36.771Z,66.29
2017-04-11T10:40:45.795Z,66.58
2017-04-11T10:41:54.398Z,65.81
2017-04-11T10:43:03.638Z,65.75
2017-04-11T10:44:13.207Z,65.17
2017-04-11T10:45:22.446Z,63.54
2017-04-11T10:46:31.419Z,62.39
2017-04-11T10:47:40.678Z,62.39
2017-04-11T10:48:49.286Z,62.59
2017-04-11T10:49:58.855Z,62.87
2017-04-11T10:51:08.123Z,61.4
2017-04-11T10:52:17.060Z,61.4
2017-04-11T10:53:25.656Z,60.93
2017-04-11T10:54:34.293Z,60.35
2017-04-11T10:55:43.712Z,61.47
2017-04-11T10:56:53.190Z,61.37
2017-04-11T10:58:02.240Z,62.14
2017-04-11T10:59:10.829Z,61.85
2017-04-11T11:00:19.749Z,62.52
2017-04-11T11:01:29.611Z,62.2
2017-04-11T11:02:38.557Z,62.97
2017-04-11T11:03:48.121Z,63.45
2017-04-11T11:04:57.685Z,64.02
2017-04-11T11:06:07.262Z,63.54
2017-04-11T11:07:16.748Z,65.36
2017-04-11T11:08:25.670Z,66.32
2017-04-11T11:09:34.262Z,65.17
2017-04-11T11:10:43.183Z,64.69
2017-04-11T11:11:52.755Z,64.47
2017-04-11T11:13:01.673Z,64.31
2017-04-11T11:14:11.238Z,64.22
2017-04-11T11:15:20.259Z,65.08
2017-04-11T11:16:29.168Z,66.51
2017-04-11T11:17:38.532Z,66.32
2017-04-11T11:18:47.466Z,65.94
2017-04-11T11:19:56.711Z,66.32
2017-04-11T11:21:05.633Z,65.94
2017-04-11T11:22:15.266Z,65.84
2017-04-11T11:23:24.211Z,66.03
2017-04-11T11:24:33.129Z,67.08
2017-04-11T11:25:42.496Z,67.94
2017-04-11T11:26:51.488Z,66.89
2017-04-11T11:28:00.082Z,66.74
2017-04-11T11:29:09.758Z,67.11
2017-04-11T11:30:19.012Z,67.5
2017-04-11T11:31:27.990Z,66.16
2017-04-11T11:32:37.318Z,64.72
2017-04-11T11:33:47.003Z,64.37
2017-04-11T11:34:56.332Z,65.05
2017-04-11T11:36:06.232Z,65.52
2017-04-11T11:37:14.862Z,65.52
2017-04-11T11:38:23.458Z,66.29
2017-04-11T11:39:32.047Z,65.91
2017-04-11T11:40:41.914Z,66.58
2017-04-11T11:41:51.149Z,66.22
2017-04-11T11:43:00.109Z,65.75
2017-04-11T11:44:09.053Z,65.84
2017-04-11T11:45:17.976Z,65.46
2017-04-11T11:46:27.238Z,65.36
2017-04-11T11:47:36.218Z,65.36
2017-04-11T11:48:45.474Z,65.26
2017-04-11T11:49:54.389Z,65.75
2017-04-11T11:51:03.756Z,65.75
2017-04-11T11:52:12.673Z,65.75
2017-04-11T11:53:21.912Z,65.65
2017-04-11T11:54:30.819Z,65.75
2017-04-11T11:55:40.048Z,65.75
2017-04-11T11:56:49.295Z,65.94
2017-04-11T11:57:57.946Z,66.16
2017-04-11T11:59:07.180Z,66.93
2017-04-11T12:00:16.095Z,66.26
2017-04-11T12:01:25.379Z,66.74
2017-04-11T12:02:34.415Z,66.26
2017-04-11T12:03:43.980Z,65.97
2017-04-11T12:04:53.524Z,66.45
2017-04-11T12:06:02.755Z,66.45
2017-04-11T12:07:12.138Z,66.55
2017-04-11T12:08:21.693Z,66.06
2017-04-11T12:09:30.608Z,66.45
2017-04-11T12:10:39.521Z,67.02
2017-04-11T12:11:48.118Z,66.55
2017-04-11T12:12:57.031Z,66.26
2017-04-11T12:14:05.620Z,66.58
2017-04-11T12:15:14.971Z,65.81
2017-04-11T12:16:23.884Z,65.88
2017-04-11T12:17:33.430Z,65.78
2017-04-11T12:18:42.669Z,65.78
2017-04-11T12:19:51.900Z,65.78
2017-04-11T12:21:00.809Z,65.78
2017-04-11T12:22:10.034Z,66.35
2017-04-11T12:23:18.631Z,66.35
2017-04-11T12:24:28.206Z,67.12
2017-04-11T12:25:37.440Z,67.6
2017-04-11T12:26:46.129Z,67.6
2017-04-11T12:27:55.907Z,67.89
2017-04-11T12:29:04.821Z,67.6
2017-04-11T12:30:14.360Z,67.69
2017-04-11T12:31:23.593Z,67.12
2017-04-11T12:32:32.852Z,66.39
2017-04-11T12:33:42.720Z,66.06
2017-04-11T12:34:51.691Z,66.35
2017-04-11T12:36:00.988Z,66.06
2017-04-11T12:37:10.542Z,66.06
2017-04-11T12:38:19.469Z,66.26
2017-04-11T12:39:28.072Z,66.35
2017-04-11T12:40:37.427Z,67.12
2017-04-11T12:41:46.901Z,67.12
2017-04-11T12:42:55.857Z,67.12
2017-04-11T12:44:05.093Z,66.55
2017-04-11T12:45:14.067Z,66.55
2017-04-11T12:46:22.997Z,66.51
2017-04-11T12:47:32.242Z,67.76
2017-04-11T12:48:41.660Z,68.52
2017-04-11T12:49:50.588Z,67.57
2017-04-11T12:51:00.018Z,66.89
2017-04-11T12:52:08.940Z,67.18
2017-04-11T12:53:17.850Z,67.09
2017-04-11T12:54:27.104Z,66.61
2017-04-11T12:55:36.025Z,66.99
2017-04-11T12:56:45.249Z,66.71
2017-04-11T12:57:54.165Z,67.18
2017-04-11T12:59:03.396Z,66.89
2017-04-11T13:00:12.633Z,67.09
2017-04-11T13:01:22.521Z,67.18
2017-04-11T13:02:31.890Z,66.99
2017-04-11T13:03:41.846Z,66.89
2017-04-11T13:04:52.954Z,67.18
2017-04-11T13:06:01.862Z,67.66
2017-04-11T13:07:10.459Z,67.76
2017-04-11T13:08:19.776Z,67.72
2017-04-11T13:09:29.293Z,68.3
2017-04-11T13:10:38.416Z,68.4
2017-04-11T13:11:48.117Z,68.59
2017-04-11T13:12:57.199Z,68.4
2017-04-11T13:14:06.454Z,68.78
2017-04-11T13:15:15.689Z,68.49
2017-04-11T13:16:25.014Z,68.74
2017-04-11T13:17:34.409Z,69.03
2017-04-11T13:18:43.003Z,69.03
2017-04-11T13:19:52.326Z,68.27
2017-04-11T13:21:01.541Z,68.55
2017-04-11T13:22:10.778Z,69.42
2017-04-11T13:23:20.325Z,70.28
2017-04-11T13:24:29.679Z,70.72
2017-04-11T13:25:39.175Z,70.24
2017-04-11T13:26:47.775Z,70.34
2017-04-11T13:27:57.010Z,70.91
2017-04-11T13:29:06.248Z,71.68
2017-04-11T13:30:15.505Z,71.2
2017-04-11T13:31:25.072Z,72.16
2017-04-11T13:32:34.006Z,71.23
2017-04-11T13:33:43.245Z,70.95
2017-04-11T13:34:52.178Z,71.52
2017-04-11T13:36:01.184Z,72.09
2017-04-11T13:37:09.784Z,71.91
2017-04-11T13:38:19.013Z,72.19
2017-04-11T13:39:27.614Z,71.91
2017-04-11T13:40:36.847Z,71.87
2017-04-11T13:41:46.784Z,71.97
2017-04-11T13:42:56.022Z,72.16
2017-04-11T13:44:05.260Z,71.97
2017-04-11T13:45:14.174Z,72.16
2017-04-11T13:46:23.087Z,72.06
2017-04-11T13:47:31.933Z,72.16
2017-04-11T13:48:41.341Z,72.34
2017-04-11T13:49:50.252Z,72.25
2017-04-11T13:50:59.847Z,72.25
2017-04-11T13:52:09.269Z,72.83
2017-04-11T13:53:17.865Z,72.83
2017-04-11T13:54:26.458Z,73.3
2017-04-11T13:55:36.005Z,73.11
2017-04-11T13:56:44.914Z,73.21
2017-04-11T13:57:53.942Z,73.69
2017-04-11T13:59:03.968Z,73.69
2017-04-11T14:00:13.314Z,73.79
2017-04-11T14:01:22.548Z,73.88
2017-04-11T14:02:32.205Z,73.5
2017-04-11T14:03:41.882Z,72.73
2017-04-11T14:04:51.301Z,73.05
2017-04-11T14:06:01.122Z,73.72
2017-04-11T14:07:10.349Z,73.54
2017-04-11T14:08:20.411Z,73.72
2017-04-11T14:09:29.711Z,73.24
2017-04-11T14:10:39.016Z,72.48
2017-04-11T14:11:48.675Z,71.71
2017-04-11T14:12:57.801Z,71.71
2017-04-11T14:14:07.282Z,71.75
2017-04-11T14:15:16.816Z,71.08
2017-04-11T14:16:26.043Z,71.62
2017-04-11T14:17:34.950Z,71.37
2017-04-11T14:18:44.183Z,71.56
2017-04-11T14:19:53.419Z,71.46
2017-04-11T14:21:02.333Z,70.41
2017-04-11T14:22:11.238Z,70.79
2017-04-11T14:23:19.829Z,71.56
2017-04-11T14:24:28.749Z,70.6
2017-04-11T14:25:38.299Z,71.46
2017-04-11T14:26:47.391Z,71.71
2017-04-11T14:27:56.771Z,71.81
2017-04-11T14:29:05.797Z,71.42
2017-04-11T14:30:14.704Z,71.71
2017-04-11T14:31:23.626Z,72.48
2017-04-11T14:32:33.168Z,72.38
2017-04-11T14:33:42.080Z,72.19
2017-04-11T14:34:52.080Z,73.11
2017-04-11T14:36:01.006Z,73.59
2017-04-11T14:37:10.440Z,73.59
2017-04-11T14:38:20.180Z,73.69
2017-04-11T14:39:30.969Z,73.69
2017-04-11T14:40:39.885Z,74.26
2017-04-11T14:41:49.109Z,74.74
2017-04-11T14:42:57.700Z,75.41
2017-04-11T14:44:06.941Z,75.41
2017-04-11T14:45:16.167Z,75.51
2017-04-11T14:46:25.081Z,76.37
2017-04-11T14:47:34.344Z,75.95
2017-04-11T14:48:43.286Z,75.27
2017-04-11T14:49:53.103Z,75.98
2017-04-11T14:51:01.706Z,76.23